Decoded Metar for KGEV (JEFFERSON in NC, USA) (IATA:GEV) | Meteo·Mobile Aviation Weather
aviador You're here:

KGEV Decoded Metar

JEFFERSON in NC, USA
Report Time2019-01-17 23:35:00
UTC Time2019-01-17 23:41:01
Flight Rules lifr LIFR
Wind150° at 03 kt
W.Decomp.*RWY 10: 1.6 kt HW 2.5 kt RCW
W.Rank150° ranks 7
Current wind is below 150° avg. (4.1)
Visibility2414 m
Phenomena:N/A
Clouds:Overcast 003 Hf
Ceiling300 ft
Temp-2°C (ISA -11)
Dew Point-2°C (100% RH)
AAT-5.3°C
QNH1018 hPa
Density Alt1,791 ft
Elevation3,179 ft
Report Wrong Elevation
Raw Report
METAR KGEV 172335Z AUTO 15003KT 1 1/2SM UP OVC003 M02/M02 A3006 RMK
AO2 T10171019=

Extra information for KGEV:More info

Metar Taf Metar & Taf Last 4 Metars F.Rules Stats Wind Profile Meteogram Temp Stats Airport Information Weather charts Add Link Nearby VenuesMetar ALERT Operation Metar Decoded Social comments

AIRNAV info for KGEV